Time;durP1;ratioP1;P1;durP2;ratioP2;P2;SDS_P1;SDS_P2;PMS_P1;PMS_P2;Temp;Humidity;BMP_temperature;BMP_pressure;BME280_temperature;BME280_humidity;BME280_pressure;Samples;Min_cycle;Max_cycle;Signal;HPM_P1;HPM_P2
2022/07/09 00:00:32;;;;;;;8.50;3.60;;;16.00;99.90;;;;;;5049619;28;20023;-62
2022/07/09 00:02:57;;;;;;;11.52;4.80;;;16.10;99.90;;;;;;5048856;28;20021;-60
2022/07/09 00:05:23;;;;;;;7.35;4.75;;;16.00;99.90;;;;;;5049020;28;20037;-63
2022/07/09 00:07:48;;;;;;;8.25;3.97;;;16.00;99.90;;;;;;5048906;28;20037;-62
2022/07/09 00:10:14;;;;;;;6.97;3.95;;;16.00;99.90;;;;;;5049089;28;20021;-63
2022/07/09 00:12:39;;;;;;;7.70;4.13;;;15.90;99.90;;;;;;5048668;28;20399;-62
2022/07/09 00:15:06;;;;;;;8.73;3.88;;;16.00;99.90;;;;;;5049097;28;20532;-61
2022/07/09 00:17:31;;;;;;;7.18;3.90;;;15.90;99.90;;;;;;5049174;28;20013;-62
2022/07/09 00:19:57;;;;;;;7.47;3.92;;;15.90;99.90;;;;;;5049190;28;20017;-62
2022/07/09 00:22:23;;;;;;;9.77;4.50;;;15.90;99.90;;;;;;5050990;28;20021;-62
2022/07/09 00:24:48;;;;;;;16.48;5.85;;;15.90;99.90;;;;;;5052208;28;20474;-62
2022/07/09 00:27:14;;;;;;;6.50;4.47;;;15.90;99.90;;;;;;5052977;28;20035;-62
2022/07/09 00:29:40;;;;;;;5.47;4.05;;;15.80;99.90;;;;;;5052599;28;20013;-62
2022/07/09 00:32:06;;;;;;;6.75;4.55;;;15.80;99.90;;;;;;5052341;28;20017;-61
2022/07/09 00:34:32;;;;;;;9.52;4.18;;;15.70;99.90;;;;;;5052321;28;20024;-63
2022/07/09 00:36:57;;;;;;;10.15;5.00;;;15.80;99.90;;;;;;5052145;28;20021;-60
2022/07/09 00:39:23;;;;;;;7.93;4.22;;;15.70;99.90;;;;;;5052314;28;20486;-62
2022/07/09 00:41:48;;;;;;;10.60;4.65;;;15.80;99.90;;;;;;5052011;28;20029;-62
2022/07/09 00:44:14;;;;;;;6.20;4.25;;;15.70;99.90;;;;;;5051594;28;20021;-60
2022/07/09 00:46:39;;;;;;;15.50;4.82;;;15.70;99.90;;;;;;5052025;28;20383;-63
2022/07/09 00:49:06;;;;;;;13.63;5.18;;;15.60;99.90;;;;;;5052103;28;20032;-61
2022/07/09 00:51:32;;;;;;;11.65;4.63;;;15.60;99.90;;;;;;5051623;28;20487;-62
2022/07/09 00:53:59;;;;;;;4.88;3.80;;;15.60;99.90;;;;;;5051626;28;20036;-62
2022/07/09 00:56:27;;;;;;;9.88;4.88;;;15.50;99.90;;;;;;5052181;28;20017;-62
2022/07/09 00:58:53;;;;;;;7.18;4.32;;;15.50;99.90;;;;;;5051910;28;20475;-62
2022/07/09 01:01:18;;;;;;;8.40;4.68;;;15.40;99.90;;;;;;5051818;28;20028;-62
2022/07/09 01:03:44;;;;;;;5.85;4.53;;;15.40;99.90;;;;;;5051802;28;20041;-62
2022/07/09 01:06:10;;;;;;;7.60;4.85;;;15.30;99.90;;;;;;5051927;28;20013;-62
2022/07/09 01:08:35;;;;;;;14.02;5.13;;;15.40;99.90;;;;;;5051480;28;20462;-62
2022/07/09 01:11:01;;;;;;;15.90;4.90;;;15.30;99.90;;;;;;5051835;28;20505;-62
2022/07/09 01:13:27;;;;;;;13.95;4.80;;;15.30;99.90;;;;;;5051305;28;20526;-60
2022/07/09 01:15:52;;;;;;;8.88;4.05;;;15.30;99.90;;;;;;5051554;28;20162;-60
2022/07/09 01:18:19;;;;;;;11.90;4.90;;;15.30;99.90;;;;;;5051870;28;20021;-61
2022/07/09 01:20:44;;;;;;;9.35;5.70;;;15.30;99.90;;;;;;5051749;28;20017;-62
2022/07/09 01:23:10;;;;;;;9.52;4.75;;;15.20;99.90;;;;;;5050729;28;20048;-61
2022/07/09 01:25:41;;;;;;;12.70;5.00;;;15.20;99.90;;;;;;5051568;28;20020;-62
2022/07/09 01:28:09;;;;;;;12.85;4.88;;;15.30;99.90;;;;;;5051355;28;20025;-62
2022/07/09 01:30:36;;;;;;;9.15;4.93;;;15.20;99.90;;;;;;5051146;28;20017;-62
2022/07/09 01:33:02;;;;;;;7.55;5.13;;;15.30;99.90;;;;;;5050090;28;20040;-61
2022/07/09 01:35:28;;;;;;;12.35;5.75;;;15.30;99.90;;;;;;5051158;28;20017;-62
2022/07/09 01:37:54;;;;;;;9.98;4.90;;;15.30;99.90;;;;;;5051604;28;20021;-61
2022/07/09 01:40:20;;;;;;;14.70;5.30;;;15.30;99.90;;;;;;5052043;28;20140;-61
2022/07/09 01:42:46;;;;;;;11.63;5.20;;;15.40;99.90;;;;;;5050702;28;20510;-61
2022/07/09 01:45:12;;;;;;;13.02;5.55;;;15.40;99.90;;;;;;5050805;28;20352;-62
2022/07/09 01:47:38;;;;;;;12.18;4.97;;;15.40;99.90;;;;;;5050525;28;20083;-62
2022/07/09 01:50:04;;;;;;;10.00;5.07;;;15.40;99.90;;;;;;5051486;28;20032;-59
2022/07/09 01:52:30;;;;;;;8.73;4.93;;;15.50;99.90;;;;;;5050962;28;20039;-60
2022/07/09 01:54:56;;;;;;;14.52;6.00;;;15.50;99.90;;;;;;5051024;28;20016;-62
2022/07/09 01:57:22;;;;;;;11.63;6.07;;;15.50;99.90;;;;;;5050753;28;20043;-61
2022/07/09 01:59:48;;;;;;;11.85;4.95;;;15.50;99.90;;;;;;5051059;28;20108;-60
2022/07/09 02:02:13;;;;;;;14.57;5.78;;;15.50;99.90;;;;;;5050248;28;20024;-61
2022/07/09 02:04:39;;;;;;;7.57;5.65;;;15.60;99.90;;;;;;5050958;28;20109;-61
2022/07/09 02:07:05;;;;;;;10.77;5.18;;;15.50;99.90;;;;;;5050377;28;20710;-62
2022/07/09 02:09:30;;;;;;;16.52;5.82;;;15.60;99.90;;;;;;5051071;28;20036;-61
2022/07/09 02:11:56;;;;;;;13.32;5.88;;;15.60;99.90;;;;;;5050411;28;20021;-62
2022/07/09 02:14:22;;;;;;;15.60;6.93;;;15.70;99.90;;;;;;5050392;28;20017;-62
2022/07/09 02:16:47;;;;;;;19.92;6.60;;;15.70;99.90;;;;;;5050987;28;20013;-62
2022/07/09 02:19:13;;;;;;;14.65;6.35;;;15.80;99.90;;;;;;5050638;28;20037;-61
2022/07/09 02:21:39;;;;;;;11.13;6.80;;;15.80;99.90;;;;;;5050006;28;20024;-62
2022/07/09 02:24:05;;;;;;;15.70;7.65;;;15.80;99.90;;;;;;5050332;28;20406;-62
2022/07/09 02:26:31;;;;;;;10.65;6.30;;;15.70;99.90;;;;;;5050720;28;20348;-60
2022/07/09 02:28:58;;;;;;;15.15;6.20;;;15.80;99.90;;;;;;5050220;28;20028;-62
2022/07/09 02:31:24;;;;;;;18.65;6.63;;;15.80;99.90;;;;;;5049400;28;20029;-61
2022/07/09 02:33:49;;;;;;;13.20;5.97;;;15.90;99.90;;;;;;5050029;28;20025;-61
2022/07/09 02:36:15;;;;;;;13.00;6.70;;;15.90;99.90;;;;;;5050164;28;20529;-61
2022/07/09 02:38:40;;;;;;;13.23;6.70;;;15.90;99.90;;;;;;5049527;28;20471;-61
2022/07/09 02:41:06;;;;;;;9.13;6.13;;;15.90;99.90;;;;;;5050479;28;20017;-61
2022/07/09 02:43:32;;;;;;;13.27;6.05;;;15.90;99.90;;;;;;5049262;28;20025;-61
2022/07/09 02:45:58;;;;;;;9.98;5.75;;;15.90;99.90;;;;;;5050075;28;20100;-60
2022/07/09 02:48:25;;;;;;;13.93;6.80;;;15.80;99.90;;;;;;5049646;28;20092;-61
2022/07/09 02:50:51;;;;;;;9.48;6.53;;;15.90;99.90;;;;;;5049671;28;20025;-60
2022/07/09 02:53:16;;;;;;;14.40;6.60;;;15.90;99.90;;;;;;5049440;28;20456;-62
2022/07/09 02:55:42;;;;;;;11.20;6.78;;;15.80;99.90;;;;;;5048245;28;20035;-63
2022/07/09 02:58:07;;;;;;;14.85;6.57;;;15.70;99.90;;;;;;5049525;28;20100;-63
2022/07/09 03:00:33;;;;;;;16.60;8.00;;;15.70;99.90;;;;;;5049944;28;20055;-62
2022/07/09 03:02:58;;;;;;;12.10;7.95;;;15.70;99.90;;;;;;5049536;28;20087;-62
2022/07/09 03:05:24;;;;;;;9.23;7.22;;;15.80;99.90;;;;;;5049769;28;20025;-61
2022/07/09 03:07:50;;;;;;;16.33;7.15;;;15.90;99.90;;;;;;5049921;28;20125;-62
2022/07/09 03:10:15;;;;;;;17.83;8.30;;;16.00;99.90;;;;;;5049462;28;20106;-62
2022/07/09 03:12:41;;;;;;;12.75;6.68;;;16.00;99.90;;;;;;5049475;28;20374;-62
2022/07/09 03:15:08;;;;;;;12.50;7.57;;;16.10;99.90;;;;;;5049945;28;20377;-62
2022/07/09 03:17:34;;;;;;;19.80;7.05;;;16.10;99.90;;;;;;5049540;28;20025;-62
2022/07/09 03:20:00;;;;;;;13.85;7.38;;;16.20;99.90;;;;;;5049253;28;20478;-61
2022/07/09 03:22:25;;;;;;;17.98;7.25;;;16.20;99.90;;;;;;5049182;28;20082;-62
2022/07/09 03:24:51;;;;;;;12.70;6.15;;;16.30;99.90;;;;;;5049491;28;20534;-62
2022/07/09 03:27:17;;;;;;;8.43;5.57;;;16.30;99.90;;;;;;5049612;28;20093;-62
2022/07/09 03:29:42;;;;;;;10.27;6.20;;;16.30;99.90;;;;;;5050086;28;20060;-62
2022/07/09 03:32:08;;;;;;;12.80;6.13;;;16.40;99.90;;;;;;5048978;28;20064;-62
2022/07/09 03:34:34;;;;;;;14.82;6.35;;;16.40;99.90;;;;;;5050164;28;20029;-60
2022/07/09 03:36:59;;;;;;;10.55;6.13;;;16.40;99.90;;;;;;5048839;28;20021;-61
2022/07/09 03:39:25;;;;;;;14.73;6.18;;;16.40;99.90;;;;;;5049451;28;20025;-62
2022/07/09 03:41:51;;;;;;;11.23;5.47;;;16.50;99.90;;;;;;5049357;28;20047;-61
2022/07/09 03:44:17;;;;;;;18.90;5.85;;;16.50;99.90;;;;;;5048853;28;20025;-61
2022/07/09 03:46:43;;;;;;;10.15;5.85;;;16.50;99.90;;;;;;5049466;28;20028;-61
2022/07/09 03:49:08;;;;;;;17.13;5.72;;;16.60;99.90;;;;;;5049457;28;20389;-61
2022/07/09 03:51:34;;;;;;;11.57;6.07;;;16.60;99.90;;;;;;5049098;28;20029;-62
2022/07/09 03:54:00;;;;;;;7.75;5.07;;;16.60;99.90;;;;;;5031002;28;20036;-61
2022/07/09 03:56:25;;;;;;;8.25;5.70;;;16.60;99.90;;;;;;5049883;28;20016;-60
2022/07/09 03:58:51;;;;;;;15.45;6.47;;;16.60;99.90;;;;;;5053136;28;20382;-61
2022/07/09 04:01:16;;;;;;;19.10;5.90;;;16.60;99.90;;;;;;5052906;28;20067;-62
2022/07/09 04:03:42;;;;;;;10.30;5.32;;;16.70;99.90;;;;;;5052814;28;20405;-57
2022/07/09 04:06:08;;;;;;;13.25;5.07;;;16.70;99.90;;;;;;5053056;28;20013;-61
2022/07/09 04:08:33;;;;;;;15.48;5.65;;;16.70;99.90;;;;;;5035191;28;20437;-62
2022/07/09 04:10:59;;;;;;;6.15;4.63;;;16.70;99.90;;;;;;5052391;28;20021;-62
2022/07/09 04:13:24;;;;;;;9.95;5.03;;;16.70;99.90;;;;;;5052199;28;20051;-62
2022/07/09 04:15:50;;;;;;;8.63;4.90;;;16.70;99.90;;;;;;5052766;28;20092;-61
2022/07/09 04:18:15;;;;;;;7.57;4.60;;;16.60;99.90;;;;;;5052737;28;20021;-62
2022/07/09 04:20:41;;;;;;;14.52;5.28;;;16.70;99.90;;;;;;5052775;28;20083;-62
2022/07/09 04:23:07;;;;;;;15.57;4.65;;;16.70;99.90;;;;;;5051770;28;20078;-62
2022/07/09 04:25:32;;;;;;;10.88;5.07;;;16.70;99.90;;;;;;5092371;22;20060;-66
2022/07/09 04:27:59;;;;;;;10.80;5.22;;;16.70;99.90;;;;;;5072938;28;20024;-66
2022/07/09 04:30:26;;;;;;;8.52;5.53;;;16.70;99.90;;;;;;5073202;28;20440;-65
2022/07/09 04:32:51;;;;;;;8.85;5.15;;;16.60;99.90;;;;;;5072650;28;20033;-67
2022/07/09 04:35:17;;;;;;;11.88;4.82;;;16.60;99.90;;;;;;5073699;28;20012;-66
2022/07/09 04:37:43;;;;;;;9.68;4.95;;;16.60;99.90;;;;;;5073983;28;20043;-66
2022/07/09 04:40:09;;;;;;;10.95;5.30;;;16.60;99.90;;;;;;5074212;28;20020;-67
2022/07/09 04:42:34;;;;;;;12.07;5.95;;;16.60;99.90;;;;;;5073111;28;20027;-66
2022/07/09 04:45:00;;;;;;;13.07;4.90;;;16.60;99.90;;;;;;5073950;28;20386;-66
2022/07/09 04:47:26;;;;;;;17.40;5.80;;;16.60;99.90;;;;;;5074010;28;20043;-67
2022/07/09 04:49:51;;;;;;;10.52;5.63;;;16.60;99.90;;;;;;5073683;28;20555;-66
2022/07/09 04:52:19;;;;;;;15.27;5.70;;;16.60;99.90;;;;;;5073647;28;20017;-66
2022/07/09 04:54:45;;;;;;;12.00;6.10;;;16.60;99.90;;;;;;5073355;28;20454;-67
2022/07/09 04:57:11;;;;;;;17.00;6.18;;;16.60;99.90;;;;;;5073912;28;20024;-66
2022/07/09 04:59:37;;;;;;;16.23;6.43;;;16.60;99.90;;;;;;5073960;28;20019;-66
2022/07/09 05:02:02;;;;;;;9.95;6.32;;;16.60;99.90;;;;;;5073568;28;20048;-66
2022/07/09 05:04:28;;;;;;;9.02;6.07;;;16.70;99.90;;;;;;5073734;28;20028;-65
2022/07/09 05:06:54;;;;;;;10.70;6.20;;;16.70;99.90;;;;;;5073643;28;20118;-65
2022/07/09 05:09:19;;;;;;;11.50;6.43;;;16.80;99.90;;;;;;5072479;28;20386;-67
2022/07/09 05:11:45;;;;;;;10.20;6.78;;;16.80;99.90;;;;;;5073312;28;20493;-66
2022/07/09 05:14:10;;;;;;;10.15;5.60;;;16.90;99.90;;;;;;5073482;28;20032;-65
2022/07/09 05:16:36;;;;;;;17.75;7.53;;;17.00;99.90;;;;;;5073791;28;20021;-65
2022/07/09 05:19:02;;;;;;;11.65;6.35;;;17.00;99.90;;;;;;5073514;28;20683;-67
2022/07/09 05:21:28;;;;;;;9.65;6.45;;;17.10;99.90;;;;;;5073334;28;20367;-67
2022/07/09 05:23:53;;;;;;;11.98;6.90;;;17.10;99.90;;;;;;5072809;28;20025;-65
2022/07/09 05:26:19;;;;;;;11.95;5.40;;;17.10;99.90;;;;;;5073232;28;20031;-68
2022/07/09 05:28:44;;;;;;;11.80;7.47;;;17.10;99.90;;;;;;5073436;28;20632;-67
2022/07/09 05:31:10;;;;;;;14.07;8.15;;;17.10;99.90;;;;;;5073142;28;20029;-66
2022/07/09 05:33:35;;;;;;;15.82;7.90;;;17.10;99.90;;;;;;5072790;28;20025;-66
2022/07/09 05:36:01;;;;;;;17.52;8.73;;;17.10;99.90;;;;;;5073116;28;20250;-66
2022/07/09 05:38:26;;;;;;;12.32;8.77;;;17.20;99.90;;;;;;5072717;28;20497;-66
2022/07/09 05:40:52;;;;;;;13.82;9.02;;;17.20;99.90;;;;;;5072665;28;20103;-66
2022/07/09 05:43:17;;;;;;;21.00;10.40;;;17.20;99.90;;;;;;5072628;28;20024;-66
2022/07/09 05:45:43;;;;;;;16.73;9.60;;;17.20;99.90;;;;;;5071512;28;20016;-66
2022/07/09 05:48:09;;;;;;;12.57;8.85;;;17.30;99.90;;;;;;5071545;28;20423;-66
2022/07/09 05:50:34;;;;;;;20.42;10.60;;;17.30;99.90;;;;;;5072750;28;20048;-66
2022/07/09 05:53:00;;;;;;;23.33;10.77;;;17.40;99.90;;;;;;5070777;28;20021;-66
2022/07/09 05:55:25;;;;;;;18.90;11.55;;;17.40;99.90;;;;;;5072434;28;20112;-66
2022/07/09 05:57:51;;;;;;;22.20;10.52;;;17.50;99.90;;;;;;5072516;28;20019;-66
2022/07/09 06:00:17;;;;;;;13.73;10.27;;;17.50;99.90;;;;;;5072554;28;20024;-66
2022/07/09 06:02:42;;;;;;;17.10;10.30;;;17.60;99.90;;;;;;5072258;28;20017;-67
2022/07/09 06:05:08;;;;;;;24.77;11.93;;;17.50;99.90;;;;;;5070401;28;20401;-67
2022/07/09 06:07:34;;;;;;;25.73;11.82;;;17.60;99.90;;;;;;5056794;28;20374;-67
2022/07/09 06:09:59;;;;;;;27.17;11.52;;;17.60;99.90;;;;;;5072203;28;20095;-67
2022/07/09 06:12:25;;;;;;;14.15;10.20;;;17.60;99.90;;;;;;5071982;28;20471;-66
2022/07/09 06:14:50;;;;;;;19.20;12.13;;;17.70;99.90;;;;;;5071146;28;20556;-66
2022/07/09 06:17:16;;;;;;;22.42;12.57;;;17.70;99.90;;;;;;5072382;28;20032;-66
2022/07/09 06:19:41;;;;;;;20.48;13.30;;;17.80;99.90;;;;;;5071967;28;20020;-67
2022/07/09 06:22:07;;;;;;;26.98;14.75;;;17.90;99.90;;;;;;5071606;28;20025;-66
2022/07/09 06:24:32;;;;;;;26.48;13.93;;;18.10;99.90;;;;;;5071722;28;20036;-67
2022/07/09 06:26:58;;;;;;;21.25;13.70;;;18.20;99.90;;;;;;5072051;28;20036;-66
2022/07/09 06:29:23;;;;;;;21.98;12.73;;;18.30;99.90;;;;;;5072140;28;20020;-66
2022/07/09 06:31:49;;;;;;;25.98;11.60;;;18.50;99.90;;;;;;5071839;28;20528;-67
2022/07/09 06:34:14;;;;;;;24.60;11.90;;;18.60;99.90;;;;;;5070600;28;20022;-66
2022/07/09 06:36:44;;;;;;;17.08;10.43;;;18.70;99.90;;;;;;5071715;28;20025;-67
2022/07/09 06:41:54;;;;;;;15.25;7.80;;;18.80;99.90;;;;;;5071940;28;20035;-66
2022/07/09 06:44:19;;;;;;;17.55;9.07;;;18.90;99.90;;;;;;5071235;28;20032;-66
2022/07/09 06:46:45;;;;;;;17.05;9.45;;;18.90;99.90;;;;;;5071866;28;20032;-67
2022/07/09 06:49:10;;;;;;;20.55;9.27;;;18.90;99.90;;;;;;5071893;28;20031;-66
2022/07/09 06:51:36;;;;;;;14.15;8.48;;;19.00;99.90;;;;;;5071131;28;20024;-67
2022/07/09 06:54:01;;;;;;;10.40;7.47;;;18.90;99.90;;;;;;5071295;28;20052;-67
2022/07/09 06:56:27;;;;;;;12.13;6.75;;;19.00;99.90;;;;;;5071638;28;20025;-66
2022/07/09 06:58:52;;;;;;;9.63;5.28;;;19.00;99.90;;;;;;5071707;28;20048;-67
2022/07/09 07:01:18;;;;;;;12.60;5.22;;;19.10;99.90;;;;;;5071511;28;20017;-66
2022/07/09 07:03:43;;;;;;;7.90;5.00;;;19.20;99.90;;;;;;5071402;28;20052;-67
2022/07/09 07:06:09;;;;;;;7.22;4.70;;;19.20;99.90;;;;;;5071371;28;20615;-67
2022/07/09 07:08:34;;;;;;;6.55;3.58;;;19.30;99.90;;;;;;5071595;28;20042;-67
2022/07/09 07:11:00;;;;;;;7.82;4.00;;;19.40;99.90;;;;;;5071479;28;20034;-67
2022/07/09 07:13:25;;;;;;;4.18;3.17;;;19.40;99.90;;;;;;5071291;28;20659;-67
2022/07/09 07:15:51;;;;;;;5.65;2.88;;;19.40;99.90;;;;;;5071445;28;20497;-67
2022/07/09 07:18:17;;;;;;;3.65;2.70;;;19.50;99.90;;;;;;5071546;28;20021;-67
2022/07/09 07:20:45;;;;;;;5.38;3.13;;;19.50;99.90;;;;;;5071187;28;20024;-67
2022/07/09 07:23:11;;;;;;;7.57;4.68;;;19.60;99.90;;;;;;5071244;28;20031;-66
2022/07/09 07:25:37;;;;;;;19.75;5.30;;;19.70;99.90;;;;;;5071223;28;20512;-66
2022/07/09 07:28:04;;;;;;;17.38;6.72;;;19.80;99.90;;;;;;5071400;28;20059;-67
2022/07/09 07:30:32;;;;;;;14.77;7.40;;;19.80;99.90;;;;;;5071391;28;20012;-66
2022/07/09 07:32:58;;;;;;;12.05;6.50;;;19.80;99.90;;;;;;5074875;28;20017;-67
2022/07/09 07:35:24;;;;;;;7.97;4.72;;;19.80;99.90;;;;;;5075023;28;20036;-67
2022/07/09 07:37:49;;;;;;;8.55;4.57;;;19.90;99.90;;;;;;5075568;28;20017;-67
2022/07/09 07:40:15;;;;;;;8.07;4.05;;;19.90;99.90;;;;;;5075380;28;20044;-67
2022/07/09 07:42:40;;;;;;;10.35;5.38;;;20.00;99.90;;;;;;5075282;28;20352;-67
2022/07/09 07:45:06;;;;;;;8.95;5.45;;;20.00;99.90;;;;;;5075266;28;20020;-66
2022/07/09 07:47:32;;;;;;;16.42;5.78;;;20.10;99.90;;;;;;5074957;28;20017;-67
2022/07/09 07:49:59;;;;;;;10.27;5.57;;;20.20;99.90;;;;;;5074995;28;20032;-66
2022/07/09 07:52:25;;;;;;;11.82;5.15;;;20.20;99.90;;;;;;5074707;28;20471;-66
2022/07/09 07:54:50;;;;;;;10.25;4.65;;;20.20;99.90;;;;;;5074665;28;20020;-66
2022/07/09 07:57:16;;;;;;;11.57;5.22;;;20.40;99.90;;;;;;5075141;28;20442;-67
2022/07/09 07:59:41;;;;;;;8.77;4.93;;;20.50;99.90;;;;;;5075243;28;20023;-67
2022/07/09 08:02:07;;;;;;;10.95;5.43;;;20.50;99.90;;;;;;5074904;28;20103;-67
2022/07/09 08:04:33;;;;;;;13.18;5.00;;;20.60;99.90;;;;;;5074663;28;20021;-67
2022/07/09 08:06:58;;;;;;;11.65;4.05;;;20.60;99.90;;;;;;5073899;28;20035;-67
2022/07/09 08:09:24;;;;;;;7.97;3.75;;;20.60;99.90;;;;;;5074918;28;20020;-67
2022/07/09 08:11:49;;;;;;;4.75;2.80;;;20.60;99.90;;;;;;5072562;28;20062;-68
2022/07/09 08:14:15;;;;;;;3.55;2.38;;;20.70;99.90;;;;;;5073310;28;20024;-66
2022/07/09 08:16:40;;;;;;;10.68;2.22;;;20.80;99.90;;;;;;5074163;28;20036;-66
2022/07/09 08:19:06;;;;;;;4.22;2.00;;;20.90;99.90;;;;;;5074198;28;20024;-67
2022/07/09 08:21:31;;;;;;;5.68;1.67;;;20.90;99.90;;;;;;5074422;28;20528;-67
2022/07/09 08:24:00;;;;;;;4.35;1.98;;;21.00;99.90;;;;;;5074439;28;20051;-66
2022/07/09 08:26:27;;;;;;;6.00;2.20;;;21.10;99.90;;;;;;5074718;28;20421;-66
2022/07/09 08:28:53;;;;;;;4.13;1.70;;;21.20;99.90;;;;;;5074635;28;20046;-67
2022/07/09 08:31:20;;;;;;;3.92;1.77;;;21.30;99.90;;;;;;5074194;28;20032;-67
2022/07/09 08:33:46;;;;;;;7.22;1.83;;;21.30;99.90;;;;;;5073504;28;20117;-67
2022/07/09 08:36:11;;;;;;;2.67;1.88;;;21.40;99.90;;;;;;5074539;28;20640;-67
2022/07/09 08:38:37;;;;;;;4.95;1.85;;;21.50;99.90;;;;;;5074303;28;20501;-67
2022/07/09 08:41:05;;;;;;;2.25;1.42;;;21.50;99.90;;;;;;5074367;28;20028;-67
2022/07/09 08:43:37;;;;;;;2.55;1.50;;;21.60;99.90;;;;;;5074153;28;20540;-66
2022/07/09 08:46:04;;;;;;;4.63;1.90;;;21.70;99.90;;;;;;5074029;28;20547;-66
2022/07/09 08:48:36;;;;;;;6.70;2.03;;;21.60;99.90;;;;;;5074041;28;20494;-66
2022/07/09 08:51:03;;;;;;;2.13;1.45;;;21.60;99.90;;;;;;5074194;28;20024;-66
2022/07/09 08:53:29;;;;;;;1.73;1.30;;;21.60;99.90;;;;;;5073055;28;20131;-66
2022/07/09 08:55:56;;;;;;;3.63;1.27;;;21.60;99.90;;;;;;5073241;28;20399;-67
2022/07/09 08:58:21;;;;;;;3.65;1.40;;;21.80;99.90;;;;;;5073871;28;20081;-66
2022/07/09 09:00:49;;;;;;;4.03;1.13;;;22.00;99.90;;;;;;5073865;28;20020;-66
2022/07/09 09:03:16;;;;;;;4.88;1.90;;;22.20;99.90;;;;;;5073674;28;20029;-66
2022/07/09 09:05:42;;;;;;;3.75;1.80;;;22.40;99.90;;;;;;5073660;28;20713;-67
2022/07/09 09:08:20;;;;;;;2.97;1.60;;;22.40;99.90;;;;;;5073242;28;20033;-66
2022/07/09 09:10:46;;;;;;;1.67;1.55;;;22.30;99.90;;;;;;5073691;28;20060;-66
2022/07/09 09:13:15;;;;;;;5.43;1.58;;;22.20;99.90;;;;;;5073116;28;20029;-66
2022/07/09 09:15:41;;;;;;;1.67;1.52;;;22.10;99.90;;;;;;5073565;28;20096;-66
2022/07/09 09:18:07;;;;;;;1.73;1.50;;;22.40;99.90;;;;;;5073416;28;20112;-66
2022/07/09 09:20:32;;;;;;;4.40;1.77;;;22.50;99.90;;;;;;5073600;28;20464;-66
2022/07/09 09:23:02;;;;;;;1.42;1.33;;;22.50;99.90;;;;;;5072831;28;20433;-66
2022/07/09 09:25:28;;;;;;;2.42;1.42;;;22.50;99.90;;;;;;5073177;28;20552;-66
2022/07/09 09:27:58;;;;;;;6.85;1.90;;;22.40;99.90;;;;;;5071790;28;20028;-67
2022/07/09 09:30:25;;;;;;;3.28;1.42;;;22.60;99.90;;;;;;5073470;28;20028;-67
2022/07/09 09:33:04;;;;;;;2.83;1.70;;;22.70;99.90;;;;;;5072664;28;20044;-66
2022/07/09 09:35:33;;;;;;;8.27;1.90;;;22.60;99.90;;;;;;5072527;28;20024;-67
2022/07/09 09:37:59;;;;;;;4.93;2.05;;;22.50;99.90;;;;;;5073231;28;20039;-68
2022/07/09 09:40:25;;;;;;;3.53;2.15;;;22.40;99.90;;;;;;5073397;28;20024;-68
2022/07/09 09:42:52;;;;;;;2.75;1.77;;;22.40;99.90;;;;;;5073102;28;20044;-67
2022/07/09 09:45:18;;;;;;;1.98;1.55;;;22.60;99.90;;;;;;5071889;28;20027;-67
2022/07/09 09:47:51;;;;;;;2.42;1.75;;;22.80;99.90;;;;;;5071944;28;20025;-67
2022/07/09 09:50:22;;;;;;;2.38;1.73;;;22.90;99.90;;;;;;5072777;28;20100;-67
2022/07/09 09:52:51;;;;;;;4.88;1.50;;;23.00;99.90;;;;;;5072429;28;20474;-67
2022/07/09 09:55:18;;;;;;;3.65;1.08;;;23.00;99.90;;;;;;5072285;28;20032;-67
2022/07/09 09:57:44;;;;;;;5.45;1.10;;;23.10;99.90;;;;;;5072992;28;20032;-68
2022/07/09 10:00:15;;;;;;;1.83;1.10;;;23.40;99.90;;;;;;5072963;28;20107;-67
2022/07/09 10:02:44;;;;;;;1.58;0.95;;;23.70;99.90;;;;;;5072788;28;20020;-68
2022/07/09 10:05:09;;;;;;;1.63;0.80;;;23.80;99.90;;;;;;5072215;28;20025;-68
2022/07/09 10:07:35;;;;;;;1.75;0.95;;;23.70;99.90;;;;;;5072555;28;20446;-68
2022/07/09 10:10:01;;;;;;;1.17;0.70;;;23.70;99.90;;;;;;5072558;28;20033;-68
2022/07/09 10:12:32;;;;;;;0.82;0.73;;;23.70;99.90;;;;;;5072101;28;20024;-68
2022/07/09 10:14:58;;;;;;;2.58;0.73;;;24.00;99.90;;;;;;5072118;28;20112;-68
2022/07/09 10:17:25;;;;;;;0.70;0.70;;;24.00;99.90;;;;;;5072055;28;20017;-67
2022/07/09 10:20:01;;;;;;;1.35;0.90;;;23.90;99.90;;;;;;5058389;28;20082;-68
2022/07/09 10:22:41;;;;;;;4.90;1.00;;;23.90;99.90;;;;;;5050828;28;20470;-68
2022/07/09 10:25:12;;;;;;;2.85;0.75;;;23.90;99.90;;;;;;5081332;22;20056;-61
2022/07/09 10:27:45;;;;;;;1.33;0.80;;;23.80;99.90;;;;;;5070731;28;20016;-60
2022/07/09 10:30:29;;;;;;;4.43;0.80;;;24.20;99.90;;;;;;5071738;28;20020;-59
2022/07/09 10:33:05;;;;;;;2.35;0.90;;;24.10;99.90;;;;;;5071533;28;20255;-59
2022/07/09 10:35:38;;;;;;;1.48;0.85;;;24.30;99.90;;;;;;5061637;28;20055;-59
2022/07/09 10:38:03;;;;;;;1.02;0.90;;;24.50;99.90;;;;;;5051965;28;20073;-60
2022/07/09 10:40:42;;;;;;;1.92;1.00;;;24.70;99.90;;;;;;5051799;28;20059;-61
2022/07/09 10:43:08;;;;;;;1.75;1.10;;;24.60;99.90;;;;;;5051448;28;20479;-61
2022/07/09 10:45:47;;;;;;;1.05;0.90;;;24.60;99.90;;;;;;5051646;28;20036;-61
2022/07/09 10:48:16;;;;;;;3.78;1.25;;;24.80;99.90;;;;;;5051519;28;20035;-60
2022/07/09 10:50:44;;;;;;;0.80;0.80;;;24.70;99.90;;;;;;5051239;28;20058;-60
2022/07/09 10:53:11;;;;;;;1.63;0.70;;;24.50;99.90;;;;;;5033884;28;20098;-61
2022/07/09 10:55:40;;;;;;;1.58;0.85;;;24.50;99.90;;;;;;5051181;28;20021;-61
2022/07/09 10:58:16;;;;;;;2.03;1.23;;;24.60;99.90;;;;;;5051452;28;20032;-61
2022/07/09 11:00:42;;;;;;;1.77;1.08;;;24.50;99.90;;;;;;5051658;28;20025;-61
2022/07/09 11:03:07;;;;;;;1.63;0.95;;;24.70;99.90;;;;;;5051246;28;20029;-61
2022/07/09 11:05:42;;;;;;;3.58;1.20;;;24.60;99.90;;;;;;5051382;28;20040;-61
2022/07/09 11:08:08;;;;;;;1.75;0.77;;;24.30;99.90;;;;;;5051221;28;20025;-61
2022/07/09 11:10:36;;;;;;;2.15;0.90;;;24.10;99.90;;;;;;5051415;28;20070;-60
2022/07/09 11:13:03;;;;;;;2.28;0.80;;;24.10;99.90;;;;;;5051166;28;20033;-60
2022/07/09 11:15:33;;;;;;;1.55;1.10;;;24.30;99.90;;;;;;5051621;28;20021;-60
2022/07/09 11:18:04;;;;;;;0.70;0.70;;;24.50;99.90;;;;;;5051509;28;20150;-59
2022/07/09 11:20:43;;;;;;;0.98;0.88;;;24.50;99.90;;;;;;5051275;28;20017;-59
2022/07/09 11:23:10;;;;;;;4.18;0.95;;;24.80;99.90;;;;;;5050808;28;20025;-60
2022/07/09 11:25:35;;;;;;;2.55;1.10;;;25.00;99.90;;;;;;5051024;28;20033;-57
2022/07/09 11:28:01;;;;;;;1.25;0.80;;;25.10;99.90;;;;;;5051295;28;20035;-60
2022/07/09 11:30:29;;;;;;;1.95;0.90;;;24.70;99.90;;;;;;5051207;28;20029;-60
2022/07/09 11:32:55;;;;;;;1.50;0.70;;;24.70;99.90;;;;;;5050836;28;20025;-60
2022/07/09 11:35:29;;;;;;;5.90;0.93;;;24.50;99.90;;;;;;5050890;28;20025;-60
2022/07/09 11:37:56;;;;;;;3.78;1.27;;;24.50;99.90;;;;;;5050901;28;20075;-60
2022/07/09 11:40:22;;;;;;;1.80;1.10;;;24.70;99.90;;;;;;5050992;28;20114;-60
2022/07/09 11:42:51;;;;;;;1.80;0.90;;;24.80;99.90;;;;;;5050917;28;20483;-60
2022/07/09 11:45:28;;;;;;;2.80;1.00;;;24.80;99.90;;;;;;5050975;28;20025;-60
2022/07/09 11:48:12;;;;;;;5.25;1.20;;;24.80;99.90;;;;;;5050980;28;20029;-59
2022/07/09 11:50:42;;;;;;;;;;;24.60;99.90;;;;;;5051254;28;20092;-60
2022/07/09 11:53:22;;;;;;;2.75;1.00;;;24.40;99.90;;;;;;5050439;28;19912;-60
2022/07/09 11:56:01;;;;;;;2.83;1.05;;;24.40;99.90;;;;;;5050883;28;20018;-60
2022/07/09 11:58:28;;;;;;;2.65;1.15;;;24.70;99.90;;;;;;5050888;28;20029;-60
2022/07/09 12:00:54;;;;;;;1.70;1.23;;;25.00;99.90;;;;;;5051023;28;20422;-59
2022/07/09 12:03:27;;;;;;;1.52;1.10;;;25.50;99.90;;;;;;5050729;28;20075;-61
2022/07/09 12:05:53;;;;;;;1.57;1.20;;;26.10;99.90;;;;;;5050882;28;20017;-60
2022/07/09 12:08:30;;;;;;;2.60;1.17;;;26.20;99.90;;;;;;5050664;28;20543;-60
2022/07/09 12:10:55;;;;;;;15.20;1.67;;;26.00;99.90;;;;;;5050957;28;20036;-60
2022/07/09 12:13:21;;;;;;;1.23;1.10;;;26.00;99.90;;;;;;5050706;28;20454;-59
2022/07/09 12:15:47;;;;;;;1.92;1.33;;;25.70;99.90;;;;;;5051104;28;20051;-60
2022/07/09 12:18:12;;;;;;;1.67;1.30;;;25.50;99.90;;;;;;5052144;28;20059;-59
2022/07/09 12:20:38;;;;;;;2.38;1.23;;;25.50;99.90;;;;;;5054491;28;20045;-59
2022/07/09 12:23:03;;;;;;;2.33;1.00;;;25.30;99.90;;;;;;5054054;28;20021;-59
2022/07/09 12:25:29;;;;;;;2.15;1.30;;;25.10;99.90;;;;;;5054143;28;20044;-60
2022/07/09 12:27:54;;;;;;;1.33;1.17;;;25.00;99.90;;;;;;5054018;28;20021;-60
2022/07/09 12:30:20;;;;;;;2.42;1.48;;;24.90;99.90;;;;;;5054377;28;20033;-57
2022/07/09 12:32:46;;;;;;;3.45;1.60;;;25.00;99.90;;;;;;5053955;28;20106;-60
2022/07/09 12:35:12;;;;;;;1.67;1.52;;;25.30;99.90;;;;;;5054192;28;20064;-60
2022/07/09 12:37:38;;;;;;;3.53;1.63;;;25.80;99.90;;;;;;5053978;28;20057;-59
2022/07/09 12:40:06;;;;;;;6.82;1.60;;;25.90;99.90;;;;;;5054113;28;20017;-60
2022/07/09 12:42:32;;;;;;;2.20;1.60;;;25.80;99.90;;;;;;5053782;28;20033;-59